Salida, CO

11:45 MST le 04 Mars 2015 (GMT -0700)
Salida | Change Station
CLOSE
Current Station
Aéroport
Location: Salida,
Altitude: 7523 ft
Stations météo à proximité

Alt. 7523 ft 38.54 °N, 106.05 °W | Updated 10 minutes ago

Couvert
Couvert
19 ° F
Paraît 5 ° F
N
16
Vent Variable Vent de ESE
Gusts 20 mph

Aujourd'hui
Haut(e) -- | Bas -- ° F
--% Risque de précip.
Hier
Haut(e) -- | Bas -- ° F
Precip. -- pouce
6:32 AM 6:00 PM
Lune gibbeuse croissante, 99% visible
Pression 30.03 pouce
Visibilité 1.8 Miles terrestres
Nuages Couvert 1200 ft
Refroidissement éolien 5 ° F
Point de rosée 12 ° F
Humidité 74%
Précipitations 0.00 pouce
Profondeur de la couche neigeuse Non disponible.
UV 2 sur 12
Pollen .80 sur 12
Qualité de l'air Non disponible.
Flu Activity Non disponible.
METAR KANK 041835Z AUTO 12014G17KT 1 3/4SM OVC012 M07/M11 A3003 RMK AO1 T10711110

More Conditions Fewer Conditions

Pression 30.03 pouce
Visibilité 1.8 Miles terrestres
Nuages Couvert 1200 ft
Refroidissement éolien 5 ° F
Point de rosée 12 ° F
Humidité 74%
Précipitations 0.00 pouce
Profondeur de la couche neigeuse Non disponible.
UV 2 sur 12
Pollen .80 sur 12
Qualité de l'air Non disponible.
Flu Activity Non disponible.
METAR KANK 041835Z AUTO 12014G17KT 1 3/4SM OVC012 M07/M11 A3003 RMK AO1 T10711110

More Conditions Fewer Conditions

10-Day Weather Forecast

Almanac

Astronomie

Mar. 04, 2015 Lever Coucher
Temps réel
Crépuscule civil
Crépuscule nautique
Crépuscule astronomique
Lune
Durée de lumière visible
Longueur du jour
Tomorrow will be .
, % of the Moon is Illuminated

Extrêmes aujourd'hui

State Highs State Lows

Community

WunderPhotos

Upload Photos

1,802,536 Photos téléchargées !

WunderBlogs® & News

Nearby

Qualité de l'air

  Qualité de l'air Indice de la qualité de l'air Polluant
Not available.

Épaisseur de neige

Station Depth Altitude

Activité sismique

Ville Distance Mag. Time & Date
Minimum magnitude displayed is 2.5.

Températures des eaux côtières

Lieu Température

Stations météo à proximité